Time;durP1;ratioP1;P1;durP2;ratioP2;P2;SDS_P1;SDS_P2;PMS_P1;PMS_P2;Temp;Humidity;BMP_temperature;BMP_pressure;BME280_temperature;BME280_humidity;BME280_pressure;Samples;Min_cycle;Max_cycle;Signal;HPM_P1;HPM_P2
2022/04/06 00:01:23;;;;;;;;;4.75;2.75;;;;;;;;5013347;28;52093;-64
2022/04/06 00:03:48;;;;;;;;;4.00;3.67;;;;;;;;5021381;28;51078;-64
2022/04/06 00:06:13;;;;;;;;;4.00;3.67;;;;;;;;5018206;28;51224;-66
2022/04/06 00:08:38;;;;;;;;;2.00;2.00;;;;;;;;5018835;28;51309;-64
2022/04/06 00:11:04;;;;;;;;;2.67;2.67;;;;;;;;5015031;28;52202;-64
2022/04/06 00:13:29;;;;;;;;;2.67;2.00;;;;;;;;5016759;28;51130;-64
2022/04/06 00:15:54;;;;;;;;;3.67;3.00;;;;;;;;5012624;28;51356;-64
2022/04/06 00:18:20;;;;;;;;;2.00;2.00;;;;;;;;5006061;28;51495;-64
2022/04/06 00:20:45;;;;;;;;;2.00;2.00;;;;;;;;5013711;28;52132;-64
2022/04/06 00:23:10;;;;;;;;;3.00;3.00;;;;;;;;5011669;28;51230;-64
2022/04/06 00:25:36;;;;;;;;;2.33;2.33;;;;;;;;5016054;28;51215;-64
2022/04/06 00:28:01;;;;;;;;;1.00;1.00;;;;;;;;5017903;28;51207;-64
2022/04/06 00:30:27;;;;;;;;;2.00;2.00;;;;;;;;5016035;28;51072;-65
2022/04/06 00:32:52;;;;;;;;;2.00;1.33;;;;;;;;5016677;28;51266;-64
2022/04/06 00:35:29;;;;;;;;;3.00;2.67;;;;;;;;5012830;28;51006;-64
2022/04/06 00:37:55;;;;;;;;;2.00;2.00;;;;;;;;5020007;28;50892;-64
2022/04/06 00:40:22;;;;;;;;;2.00;0.00;;;;;;;;5016082;28;51143;-64
2022/04/06 00:42:47;;;;;;;;;3.00;2.33;;;;;;;;5015458;28;51231;-64
2022/04/06 00:45:13;;;;;;;;;1.00;1.00;;;;;;;;5013719;28;51013;-64
2022/04/06 00:47:38;;;;;;;;;2.67;1.00;;;;;;;;5013584;28;51089;-64
2022/04/06 00:50:03;;;;;;;;;2.33;1.33;;;;;;;;5013832;28;51728;-64
2022/04/06 00:52:29;;;;;;;;;1.00;1.00;;;;;;;;5010625;28;51217;-65
2022/04/06 00:54:54;;;;;;;;;1.33;1.33;;;;;;;;5018523;28;50961;-64
2022/04/06 00:57:19;;;;;;;;;2.00;2.00;;;;;;;;5014242;28;51104;-63
2022/04/06 00:59:47;;;;;;;;;1.33;1.00;;;;;;;;5011983;28;51917;-64
2022/04/06 01:02:12;;;;;;;;;1.00;1.00;;;;;;;;5014644;28;51158;-64
2022/04/06 01:04:37;;;;;;;;;1.00;1.00;;;;;;;;5013438;28;51054;-64
2022/04/06 01:07:02;;;;;;;;;2.00;2.00;;;;;;;;5022752;28;51314;-64
2022/04/06 01:09:28;;;;;;;;;2.00;1.00;;;;;;;;5011401;28;51965;-64
2022/04/06 01:11:53;;;;;;;;;1.67;1.00;;;;;;;;5020928;28;50910;-64
2022/04/06 01:14:19;;;;;;;;;1.00;1.00;;;;;;;;5014012;28;50961;-63
2022/04/06 01:17:04;;;;;;;;;1.67;1.67;;;;;;;;5010158;28;51214;-62
2022/04/06 01:19:33;;;;;;;;;2.33;2.00;;;;;;;;5011510;28;50899;-64
2022/04/06 01:21:58;;;;;;;;;2.00;2.00;;;;;;;;5019942;28;51312;-63
2022/04/06 01:24:24;;;;;;;;;2.00;2.00;;;;;;;;5014472;28;51085;-64
2022/04/06 01:26:49;;;;;;;;;2.33;1.33;;;;;;;;5018633;28;51062;-65
2022/04/06 01:29:14;;;;;;;;;1.00;1.00;;;;;;;;5012660;28;51050;-64
2022/04/06 01:31:39;;;;;;;;;1.33;1.00;;;;;;;;5013088;28;51268;-64
2022/04/06 01:34:05;;;;;;;;;1.00;1.00;;;;;;;;5019841;28;51110;-64
2022/04/06 01:36:30;;;;;;;;;2.00;1.00;;;;;;;;5017024;28;51150;-64
2022/04/06 01:38:55;;;;;;;;;1.00;1.00;;;;;;;;5018894;28;51812;-64
2022/04/06 01:41:20;;;;;;;;;1.00;1.00;;;;;;;;5021168;28;51036;-64
2022/04/06 01:43:45;;;;;;;;;2.33;1.00;;;;;;;;5023237;28;51219;-67
2022/04/06 01:46:11;;;;;;;;;0.33;0.33;;;;;;;;5017145;28;51222;-64
2022/04/06 01:52:11;;;;;;;;;1.00;1.00;;;;;;;;5029047;28;51735;-64
2022/04/06 01:54:05;;;;;;;;;2.00;1.00;;;;;;;;5016509;28;51166;-63
2022/04/06 01:56:30;;;;;;;;;1.00;1.00;;;;;;;;5016289;28;51138;-63
2022/04/06 01:58:55;;;;;;;;;1.00;0.67;;;;;;;;5019837;28;52852;-63
2022/04/06 02:01:21;;;;;;;;;2.00;1.00;;;;;;;;5017815;28;51013;-62
2022/04/06 02:03:46;;;;;;;;;1.00;1.00;;;;;;;;5005379;28;51253;-63
2022/04/06 02:06:12;;;;;;;;;1.00;1.00;;;;;;;;5022007;28;51255;-63
2022/04/06 02:08:37;;;;;;;;;0.00;0.00;;;;;;;;5014983;28;51031;-63
2022/04/06 02:11:02;;;;;;;;;1.00;1.00;;;;;;;;5021789;28;51135;-62
2022/04/06 02:13:27;;;;;;;;;1.00;1.00;;;;;;;;5019077;28;51441;-64
2022/04/06 02:15:52;;;;;;;;;1.33;1.33;;;;;;;;5013424;28;50971;-63
2022/04/06 02:18:18;;;;;;;;;1.33;1.00;;;;;;;;5017926;28;52000;-63
2022/04/06 02:20:43;;;;;;;;;1.33;1.00;;;;;;;;5020046;28;51312;-64
2022/04/06 02:23:10;;;;;;;;;1.00;1.00;;;;;;;;5022412;28;51544;-66
2022/04/06 02:25:35;;;;;;;;;1.00;1.00;;;;;;;;5012626;28;51452;-63
2022/04/06 02:28:00;;;;;;;;;0.33;0.00;;;;;;;;5014184;28;52158;-63
2022/04/06 02:30:26;;;;;;;;;1.50;1.00;;;;;;;;5015976;28;50926;-62
2022/04/06 02:32:51;;;;;;;;;1.00;0.00;;;;;;;;5015957;28;50853;-64
2022/04/06 02:35:16;;;;;;;;;1.33;1.00;;;;;;;;5014634;28;51226;-64
2022/04/06 02:37:44;;;;;;;;;1.00;1.00;;;;;;;;5016796;28;51098;-65
2022/04/06 02:40:10;;;;;;;;;0.00;0.00;;;;;;;;5024525;28;51064;-63
2022/04/06 02:42:35;;;;;;;;;4.00;4.00;;;;;;;;5015279;28;51110;-62
2022/04/06 02:45:00;;;;;;;;;1.67;1.33;;;;;;;;5015036;28;51310;-64
2022/04/06 02:47:25;;;;;;;;;1.00;1.00;;;;;;;;5015455;28;51014;-63
2022/04/06 02:49:51;;;;;;;;;2.00;1.00;;;;;;;;5013819;28;51156;-63
2022/04/06 02:52:17;;;;;;;;;0.00;0.00;;;;;;;;5030067;28;51256;-64
2022/04/06 02:54:42;;;;;;;;;0.33;0.33;;;;;;;;5017044;28;51107;-64
2022/04/06 02:57:07;;;;;;;;;1.00;1.00;;;;;;;;5017567;28;52103;-63
2022/04/06 02:59:32;;;;;;;;;0.00;0.00;;;;;;;;5014683;28;51104;-63
2022/04/06 03:01:57;;;;;;;;;1.00;0.67;;;;;;;;5018340;28;51104;-63
2022/04/06 03:04:23;;;;;;;;;1.33;0.00;;;;;;;;5024037;28;51138;-63
2022/04/06 03:06:48;;;;;;;;;1.00;1.00;;;;;;;;5027865;28;51263;-63
2022/04/06 03:09:13;;;;;;;;;0.33;0.00;;;;;;;;5031365;28;51120;-63
2022/04/06 03:11:39;;;;;;;;;1.00;1.00;;;;;;;;5019303;28;51075;-63
2022/04/06 03:14:05;;;;;;;;;0.00;0.00;;;;;;;;5030397;28;51215;-64
2022/04/06 03:16:30;;;;;;;;;0.33;0.33;;;;;;;;5011790;28;51834;-64
2022/04/06 03:18:55;;;;;;;;;2.00;1.00;;;;;;;;5010909;28;51139;-64
2022/04/06 03:21:21;;;;;;;;;2.00;1.00;;;;;;;;5013230;28;51022;-64
2022/04/06 03:23:46;;;;;;;;;0.00;0.00;;;;;;;;5022740;28;51143;-64
2022/04/06 03:26:11;;;;;;;;;0.00;0.00;;;;;;;;5014978;28;51617;-64
2022/04/06 03:28:38;;;;;;;;;1.00;1.00;;;;;;;;5017367;28;51151;-64
2022/04/06 03:31:03;;;;;;;;;0.00;0.00;;;;;;;;5029042;28;51230;-64
2022/04/06 03:33:29;;;;;;;;;0.00;0.00;;;;;;;;5020185;28;51660;-64
2022/04/06 03:35:54;;;;;;;;;0.00;0.00;;;;;;;;5021430;28;52232;-64
2022/04/06 03:38:19;;;;;;;;;0.00;0.00;;;;;;;;5016227;28;51138;-64
2022/04/06 03:40:45;;;;;;;;;0.00;0.00;;;;;;;;5019077;28;51089;-64
2022/04/06 03:43:10;;;;;;;;;0.00;0.00;;;;;;;;5011218;28;51484;-64
2022/04/06 03:45:35;;;;;;;;;0.00;0.00;;;;;;;;5021286;28;51705;-63
2022/04/06 03:48:00;;;;;;;;;0.00;0.00;;;;;;;;5018467;28;51165;-63
2022/04/06 03:50:26;;;;;;;;;1.00;0.00;;;;;;;;5014831;28;50982;-63
2022/04/06 03:52:51;;;;;;;;;0.67;0.00;;;;;;;;5016535;28;50916;-63
2022/04/06 03:55:16;;;;;;;;;0.00;0.00;;;;;;;;5021031;28;51685;-64
2022/04/06 03:57:41;;;;;;;;;0.67;0.33;;;;;;;;5012209;28;51553;-63
2022/04/06 04:00:08;;;;;;;;;0.00;0.00;;;;;;;;5013865;28;51067;-63
2022/04/06 04:02:33;;;;;;;;;0.00;0.00;;;;;;;;5027571;28;50919;-63
2022/04/06 04:04:58;;;;;;;;;1.00;0.00;;;;;;;;5019613;28;51142;-63
2022/04/06 04:07:24;;;;;;;;;0.00;0.00;;;;;;;;5013671;28;51088;-63
2022/04/06 04:09:50;;;;;;;;;0.00;0.00;;;;;;;;5023585;28;51220;-63
2022/04/06 04:12:15;;;;;;;;;0.00;0.00;;;;;;;;5017589;28;51081;-63
2022/04/06 04:14:41;;;;;;;;;0.00;0.00;;;;;;;;5014908;28;51067;-63
2022/04/06 04:17:06;;;;;;;;;0.00;0.00;;;;;;;;5017494;28;50984;-64
2022/04/06 04:19:32;;;;;;;;;0.00;0.00;;;;;;;;5024729;28;51229;-64
2022/04/06 04:21:57;;;;;;;;;0.00;0.00;;;;;;;;5021437;28;50965;-63
2022/04/06 04:24:22;;;;;;;;;0.33;0.33;;;;;;;;5019457;28;51037;-64
2022/04/06 04:26:48;;;;;;;;;0.00;0.00;;;;;;;;5014220;28;51015;-63
2022/04/06 04:29:14;;;;;;;;;0.00;0.00;;;;;;;;5013797;28;51032;-63
2022/04/06 04:31:39;;;;;;;;;1.00;0.67;;;;;;;;5014302;28;51076;-63
2022/04/06 04:34:04;;;;;;;;;0.00;0.00;;;;;;;;5012169;28;51794;-64
2022/04/06 04:36:29;;;;;;;;;1.00;1.00;;;;;;;;5014072;28;51114;-63
2022/04/06 04:38:55;;;;;;;;;0.00;0.00;;;;;;;;5019050;28;51107;-63
2022/04/06 04:41:20;;;;;;;;;1.00;0.00;;;;;;;;5029986;28;51275;-63
2022/04/06 04:43:45;;;;;;;;;1.00;0.00;;;;;;;;5015986;28;51777;-65
2022/04/06 04:46:11;;;;;;;;;1.00;1.00;;;;;;;;5012186;28;51132;-62
2022/04/06 04:48:36;;;;;;;;;0.00;0.00;;;;;;;;5018362;28;51600;-63
2022/04/06 04:51:02;;;;;;;;;1.00;0.67;;;;;;;;5020073;28;51324;-63
2022/04/06 04:53:27;;;;;;;;;0.00;0.00;;;;;;;;5017771;28;51017;-63
2022/04/06 04:55:53;;;;;;;;;0.67;0.67;;;;;;;;4990162;28;51318;-64
2022/04/06 04:58:18;;;;;;;;;2.00;1.00;;;;;;;;5000675;28;51219;-63
2022/04/06 05:00:44;;;;;;;;;1.00;1.00;;;;;;;;4998781;28;50914;-63
2022/04/06 05:03:09;;;;;;;;;4.00;2.25;;;;;;;;4994245;28;53823;-63
2022/04/06 05:05:34;;;;;;;;;0.00;0.00;;;;;;;;5004300;28;50906;-63
2022/04/06 05:08:00;;;;;;;;;0.33;0.33;;;;;;;;4999507;28;51421;-64
2022/04/06 05:10:25;;;;;;;;;0.00;0.00;;;;;;;;5002674;28;51037;-63
2022/04/06 05:12:51;;;;;;;;;1.75;0.75;;;;;;;;5004933;28;51737;-63
2022/04/06 05:15:16;;;;;;;;;1.00;1.00;;;;;;;;4998510;28;50919;-63
2022/04/06 05:17:42;;;;;;;;;1.33;1.00;;;;;;;;5001151;28;51816;-63
2022/04/06 05:20:07;;;;;;;;;0.67;0.67;;;;;;;;4990951;28;51073;-62
2022/04/06 05:22:33;;;;;;;;;1.00;1.00;;;;;;;;5004602;28;51916;-63
2022/04/06 05:25:00;;;;;;;;;1.33;1.00;;;;;;;;4998676;28;51052;-63
2022/04/06 05:27:25;;;;;;;;;4.00;1.00;;;;;;;;5002024;28;51171;-64
2022/04/06 05:29:50;;;;;;;;;2.75;2.75;;;;;;;;5006388;28;51270;-63
2022/04/06 05:32:16;;;;;;;;;2.00;2.00;;;;;;;;4990968;28;51852;-64
2022/04/06 05:34:41;;;;;;;;;1.75;1.75;;;;;;;;4993452;28;51040;-64
2022/04/06 05:37:06;;;;;;;;;3.00;1.00;;;;;;;;4999974;28;51245;-64
2022/04/06 05:39:31;;;;;;;;;2.00;2.00;;;;;;;;4995162;28;51118;-63
2022/04/06 05:41:57;;;;;;;;;1.00;1.00;;;;;;;;5000046;28;51923;-64
2022/04/06 05:44:22;;;;;;;;;1.33;1.00;;;;;;;;4998928;28;51127;-64
2022/04/06 05:46:47;;;;;;;;;3.00;2.33;;;;;;;;5001610;28;51349;-64
2022/04/06 05:49:12;;;;;;;;;3.50;3.00;;;;;;;;4997870;28;50962;-64
2022/04/06 05:51:38;;;;;;;;;2.75;2.00;;;;;;;;4998033;28;51125;-64
2022/04/06 05:54:03;;;;;;;;;1.33;1.33;;;;;;;;5003343;28;51074;-63
2022/04/06 05:56:29;;;;;;;;;3.00;3.00;;;;;;;;5000017;28;51335;-63
2022/04/06 05:58:54;;;;;;;;;3.00;3.00;;;;;;;;5000373;28;50801;-63
2022/04/06 06:01:20;;;;;;;;;3.33;3.00;;;;;;;;5006524;28;51869;-64
2022/04/06 06:03:45;;;;;;;;;3.00;3.00;;;;;;;;4985273;28;51175;-64
2022/04/06 06:06:10;;;;;;;;;2.00;1.00;;;;;;;;5000540;28;51089;-63
2022/04/06 06:08:35;;;;;;;;;3.00;3.00;;;;;;;;5000169;28;51018;-63
2022/04/06 06:11:01;;;;;;;;;3.00;3.00;;;;;;;;5005418;28;52726;-63
2022/04/06 06:13:27;;;;;;;;;4.75;3.75;;;;;;;;5006499;28;51524;-63
2022/04/06 06:15:52;;;;;;;;;84.25;67.75;;;;;;;;5001664;28;51025;-65
2022/04/06 06:18:17;;;;;;;;;2.50;2.25;;;;;;;;5000015;28;50951;-64
2022/04/06 06:20:42;;;;;;;;;5.75;5.00;;;;;;;;5002246;28;52349;-64
2022/04/06 06:23:08;;;;;;;;;1.00;0.00;;;;;;;;5001204;28;51763;-63
2022/04/06 06:25:33;;;;;;;;;3.50;3.50;;;;;;;;4999313;28;51067;-64
2022/04/06 06:27:58;;;;;;;;;2.50;2.50;;;;;;;;4998187;28;51044;-62
2022/04/06 06:30:27;;;;;;;;;3.00;2.00;;;;;;;;4983793;28;53080;-63
2022/04/06 06:32:52;;;;;;;;;3.00;3.00;;;;;;;;5000123;28;51714;-63
2022/04/06 06:35:19;;;;;;;;;8.75;5.75;;;;;;;;4997663;28;52373;-63
2022/04/06 06:37:48;;;;;;;;;2.00;2.00;;;;;;;;4993290;28;51192;-64
2022/04/06 06:40:14;;;;;;;;;3.67;3.67;;;;;;;;5001675;28;51174;-63
2022/04/06 06:42:39;;;;;;;;;2.25;2.25;;;;;;;;5013426;28;51154;-64
2022/04/06 06:45:05;;;;;;;;;3.25;3.25;;;;;;;;5028014;28;51000;-64
2022/04/06 06:47:30;;;;;;;;;4.25;4.00;;;;;;;;5015119;28;51103;-64
2022/04/06 06:49:55;;;;;;;;;7.25;7.00;;;;;;;;5014874;28;51994;-64
2022/04/06 06:52:20;;;;;;;;;4.75;4.00;;;;;;;;5015079;28;51134;-64
2022/04/06 06:54:46;;;;;;;;;3.25;3.25;;;;;;;;5015663;28;51005;-64
2022/04/06 06:57:11;;;;;;;;;5.75;5.75;;;;;;;;5015421;28;51264;-64
2022/04/06 06:59:36;;;;;;;;;3.75;3.50;;;;;;;;5017628;28;51769;-64
2022/04/06 07:02:02;;;;;;;;;4.00;3.00;;;;;;;;5021487;28;51123;-62
2022/04/06 07:04:27;;;;;;;;;4.25;3.75;;;;;;;;5013492;28;51000;-65
2022/04/06 07:06:52;;;;;;;;;5.00;4.75;;;;;;;;5015660;28;51068;-63
2022/04/06 07:09:18;;;;;;;;;4.50;4.00;;;;;;;;5014757;28;51608;-63
2022/04/06 07:11:43;;;;;;;;;4.00;4.00;;;;;;;;5012516;28;50825;-63
2022/04/06 07:14:08;;;;;;;;;3.50;2.50;;;;;;;;5014934;28;51245;-64
2022/04/06 07:16:33;;;;;;;;;4.00;3.50;;;;;;;;5020577;28;51191;-63
2022/04/06 07:18:59;;;;;;;;;3.75;3.75;;;;;;;;5014709;28;52049;-63
2022/04/06 07:21:24;;;;;;;;;2.00;2.00;;;;;;;;5010869;28;51087;-63
2022/04/06 07:23:49;;;;;;;;;3.75;3.75;;;;;;;;5014779;28;50852;-63
2022/04/06 07:26:16;;;;;;;;;6.00;6.00;;;;;;;;5014629;28;51152;-63
2022/04/06 07:28:42;;;;;;;;;4.00;3.00;;;;;;;;5013966;28;51931;-64
2022/04/06 07:31:08;;;;;;;;;4.25;4.00;;;;;;;;5012934;28;51801;-64
2022/04/06 07:33:36;;;;;;;;;5.00;4.00;;;;;;;;5025706;28;51030;-63
2022/04/06 07:36:01;;;;;;;;;4.00;3.50;;;;;;;;5013244;28;51302;-64
2022/04/06 07:38:27;;;;;;;;;3.25;2.50;;;;;;;;5014306;28;51133;-63
2022/04/06 07:40:52;;;;;;;;;3.00;1.67;;;;;;;;5013004;28;51056;-63
2022/04/06 07:43:17;;;;;;;;;2.00;2.00;;;;;;;;5014150;28;51177;-64
2022/04/06 07:45:42;;;;;;;;;4.00;3.00;;;;;;;;5014660;28;50917;-64
2022/04/06 07:48:09;;;;;;;;;2.33;2.33;;;;;;;;5001508;28;51206;-63
2022/04/06 07:50:34;;;;;;;;;1.00;1.00;;;;;;;;5010332;28;51211;-64
2022/04/06 07:53:00;;;;;;;;;2.00;2.00;;;;;;;;5010616;28;51175;-63
2022/04/06 07:55:25;;;;;;;;;2.50;2.00;;;;;;;;5011246;28;51130;-63
2022/04/06 07:57:50;;;;;;;;;4.25;3.75;;;;;;;;5012875;28;51075;-63
2022/04/06 08:00:16;;;;;;;;;3.67;1.67;;;;;;;;5014123;28;50905;-63
2022/04/06 08:02:43;;;;;;;;;2.00;2.00;;;;;;;;5011811;28;51175;-63
2022/04/06 08:05:09;;;;;;;;;4.00;3.00;;;;;;;;5014586;28;51102;-63
2022/04/06 08:07:39;;;;;;;;;2.00;2.00;;;;;;;;5012136;28;51181;-64
2022/04/06 08:10:05;;;;;;;;;1.00;1.00;;;;;;;;5015688;28;50942;-64
2022/04/06 08:12:30;;;;;;;;;4.33;3.33;;;;;;;;5013772;28;51005;-65
2022/04/06 08:14:55;;;;;;;;;3.67;2.00;;;;;;;;5014401;28;51148;-64
2022/04/06 08:17:21;;;;;;;;;2.33;2.00;;;;;;;;5013552;28;51748;-64
2022/04/06 08:19:46;;;;;;;;;4.00;3.50;;;;;;;;5012767;28;51100;-64
2022/04/06 08:22:13;;;;;;;;;3.00;2.25;;;;;;;;5011690;28;50959;-63
2022/04/06 08:24:38;;;;;;;;;3.00;2.25;;;;;;;;5012678;28;51292;-64
2022/04/06 08:27:03;;;;;;;;;3.00;2.00;;;;;;;;5011818;28;51832;-62
2022/04/06 08:29:28;;;;;;;;;3.00;2.67;;;;;;;;5013677;28;51045;-64
2022/04/06 08:31:54;;;;;;;;;6.00;5.00;;;;;;;;5013850;28;51180;-64
2022/04/06 08:34:19;;;;;;;;;5.00;3.50;;;;;;;;5012518;28;51008;-63
2022/04/06 08:36:45;;;;;;;;;2.33;2.33;;;;;;;;5013403;28;50984;-64
2022/04/06 08:39:10;;;;;;;;;2.00;2.00;;;;;;;;5013513;28;51032;-63
2022/04/06 08:41:36;;;;;;;;;3.50;3.50;;;;;;;;5013649;28;51049;-63
2022/04/06 08:44:01;;;;;;;;;3.00;3.00;;;;;;;;5025033;28;51327;-63
2022/04/06 08:46:31;;;;;;;;;3.33;3.00;;;;;;;;5013351;28;52121;-63
2022/04/06 08:48:57;;;;;;;;;4.00;3.00;;;;;;;;5013553;28;50799;-63
2022/04/06 08:51:23;;;;;;;;;3.33;2.00;;;;;;;;5013625;28;50950;-63
2022/04/06 08:53:48;;;;;;;;;4.00;3.00;;;;;;;;5013318;28;51120;-64
2022/04/06 08:56:14;;;;;;;;;2.33;2.33;;;;;;;;5013449;28;51523;-63
2022/04/06 08:58:40;;;;;;;;;3.00;2.00;;;;;;;;5019047;28;51218;-63
2022/04/06 09:01:06;;;;;;;;;3.00;3.00;;;;;;;;5016448;28;51116;-63
2022/04/06 09:03:31;;;;;;;;;3.00;2.00;;;;;;;;5013402;28;51309;-63
2022/04/06 09:06:00;;;;;;;;;4.33;3.33;;;;;;;;5011558;28;54044;-64
2022/04/06 09:08:33;;;;;;;;;3.00;2.00;;;;;;;;5013293;28;51015;-64
2022/04/06 09:11:05;;;;;;;;;3.33;3.00;;;;;;;;5011592;28;51125;-64
2022/04/06 09:13:31;;;;;;;;;3.33;3.00;;;;;;;;5011336;28;51470;-63
2022/04/06 09:15:59;;;;;;;;;3.00;2.67;;;;;;;;5012399;28;51759;-64
2022/04/06 09:18:33;;;;;;;;;2.00;2.00;;;;;;;;5011105;28;50975;-64
2022/04/06 09:21:00;;;;;;;;;5.33;4.67;;;;;;;;5011037;28;51276;-64
2022/04/06 09:23:25;;;;;;;;;5.00;5.00;;;;;;;;5005190;28;50914;-63
2022/04/06 09:25:50;;;;;;;;;4.00;4.00;;;;;;;;5012306;28;52120;-62
2022/04/06 09:28:15;;;;;;;;;5.00;4.00;;;;;;;;5012002;28;51025;-63
2022/04/06 09:30:42;;;;;;;;;6.00;6.00;;;;;;;;5012510;28;51015;-63
2022/04/06 09:33:16;;;;;;;;;4.00;3.67;;;;;;;;5012552;28;50926;-64
2022/04/06 09:35:42;;;;;;;;;4.00;4.00;;;;;;;;5010042;28;52083;-63
2022/04/06 09:38:11;;;;;;;;;5.67;5.00;;;;;;;;5010826;28;51095;-63
2022/04/06 09:40:40;;;;;;;;;6.00;5.00;;;;;;;;5012145;28;51185;-63
2022/04/06 09:43:06;;;;;;;;;4.00;3.00;;;;;;;;5012188;28;51138;-63
2022/04/06 09:48:14;;;;;;;;;4.00;3.33;;;;;;;;5012553;28;51043;-63
2022/04/06 09:50:43;;;;;;;;;3.67;3.67;;;;;;;;5012270;28;51369;-64
2022/04/06 09:53:09;;;;;;;;;4.67;4.67;;;;;;;;5012817;28;50947;-64
2022/04/06 09:55:36;;;;;;;;;6.00;5.67;;;;;;;;5011968;28;51716;-63
2022/04/06 09:58:03;;;;;;;;;5.33;4.67;;;;;;;;5011095;28;51117;-63
2022/04/06 10:00:30;;;;;;;;;2.00;2.00;;;;;;;;4994221;28;50889;-63
2022/04/06 10:03:08;;;;;;;;;4.33;4.33;;;;;;;;5010902;28;50925;-64
2022/04/06 10:05:34;;;;;;;;;5.25;5.00;;;;;;;;5010533;28;53881;-63
2022/04/06 10:08:04;;;;;;;;;6.25;6.25;;;;;;;;5012248;28;50996;-63
2022/04/06 10:10:30;;;;;;;;;5.00;5.00;;;;;;;;5011674;28;50908;-64
2022/04/06 10:12:56;;;;;;;;;6.00;5.00;;;;;;;;5010527;28;50886;-63
2022/04/06 10:15:22;;;;;;;;;5.00;5.00;;;;;;;;5011363;28;52410;-63
2022/04/06 10:17:47;;;;;;;;;6.00;6.00;;;;;;;;5011776;28;50950;-64
2022/04/06 10:20:20;;;;;;;;;3.00;3.00;;;;;;;;5011795;28;51033;-63
2022/04/06 10:22:51;;;;;;;;;5.00;5.00;;;;;;;;5012205;28;51073;-63
2022/04/06 10:25:27;;;;;;;;;11.50;9.50;;;;;;;;5011696;28;51309;-64
2022/04/06 10:27:56;;;;;;;;;6.67;6.00;;;;;;;;5011661;28;51150;-63
2022/04/06 10:30:27;;;;;;;;;5.33;5.00;;;;;;;;5010569;28;50978;-63
2022/04/06 10:32:53;;;;;;;;;5.00;4.00;;;;;;;;5011894;28;51182;-64
2022/04/06 10:35:35;;;;;;;;;6.75;5.75;;;;;;;;5010146;28;51059;-64
2022/04/06 10:38:03;;;;;;;;;6.33;6.33;;;;;;;;5010373;28;51249;-64
2022/04/06 10:40:48;;;;;;;;;4.67;4.67;;;;;;;;5011438;28;51127;-64
2022/04/06 10:43:34;;;;;;;;;7.33;6.00;;;;;;;;5011629;28;51405;-64
2022/04/06 10:46:00;;;;;;;;;6.67;5.00;;;;;;;;5005022;28;50942;-64
2022/04/06 10:48:25;;;;;;;;;7.33;7.33;;;;;;;;5015041;28;51115;-64
2022/04/06 10:50:51;;;;;;;;;6.33;6.00;;;;;;;;5015290;28;50886;-64
2022/04/06 10:53:19;;;;;;;;;30.50;28.75;;;;;;;;5014961;28;51080;-63
2022/04/06 10:56:06;;;;;;;;;8.00;7.67;;;;;;;;5014658;28;51843;-64
2022/04/06 10:58:49;;;;;;;;;5.33;5.33;;;;;;;;5014571;28;51052;-64
2022/04/06 11:01:16;;;;;;;;;8.67;7.33;;;;;;;;5014848;28;50964;-64
2022/04/06 11:03:45;;;;;;;;;6.67;6.00;;;;;;;;5014548;28;51128;-64
2022/04/06 11:06:10;;;;;;;;;12.00;9.67;;;;;;;;5014450;28;51080;-63
2022/04/06 11:11:38;;;;;;;;;10.67;9.00;;;;;;;;5014721;28;50849;-64
2022/04/06 11:14:04;;;;;;;;;7.33;6.33;;;;;;;;5013262;28;51298;-64
2022/04/06 11:16:42;;;;;;;;;6.33;6.33;;;;;;;;5014505;28;51668;-65
2022/04/06 11:19:08;;;;;;;;;5.00;4.67;;;;;;;;5014378;28;50952;-65
2022/04/06 11:21:33;;;;;;;;;9.00;9.00;;;;;;;;5014326;28;50974;-63
2022/04/06 11:23:58;;;;;;;;;9.33;9.00;;;;;;;;5009560;28;51002;-64
2022/04/06 11:26:24;;;;;;;;;19.75;16.00;;;;;;;;5014378;28;51151;-63
2022/04/06 11:28:58;;;;;;;;;13.00;11.00;;;;;;;;5013884;28;51124;-63
2022/04/06 11:31:23;;;;;;;;;9.33;9.00;;;;;;;;5013228;28;51016;-63
2022/04/06 11:33:49;;;;;;;;;10.33;10.33;;;;;;;;5014160;28;51172;-63
2022/04/06 11:36:15;;;;;;;;;7.67;7.67;;;;;;;;5010830;28;51882;-63
2022/04/06 11:38:40;;;;;;;;;8.67;7.00;;;;;;;;5013744;28;51070;-62
2022/04/06 11:41:06;;;;;;;;;4.00;4.00;;;;;;;;5012607;28;51089;-62
2022/04/06 11:43:31;;;;;;;;;10.50;10.50;;;;;;;;5013785;28;51212;-64
2022/04/06 11:45:59;;;;;;;;;7.33;6.33;;;;;;;;5013850;28;52154;-63
2022/04/06 11:48:37;;;;;;;;;11.25;10.25;;;;;;;;5014129;28;50903;-63
2022/04/06 11:51:03;;;;;;;;;7.75;6.50;;;;;;;;5013443;28;51162;-63
2022/04/06 11:53:28;;;;;;;;;8.00;8.00;;;;;;;;5013779;28;51090;-63
2022/04/06 11:55:54;;;;;;;;;8.33;7.00;;;;;;;;5013466;28;52571;-63
2022/04/06 11:58:29;;;;;;;;;7.33;7.00;;;;;;;;5011346;28;51187;-63
2022/04/06 12:01:00;;;;;;;;;7.33;7.33;;;;;;;;5013371;28;50980;-64
2022/04/06 12:03:29;;;;;;;;;8.33;7.33;;;;;;;;5012001;28;51180;-63
2022/04/06 12:05:54;;;;;;;;;7.00;7.00;;;;;;;;5013497;28;51895;-64
2022/04/06 12:08:19;;;;;;;;;6.00;6.00;;;;;;;;5013584;28;51110;-64
2022/04/06 12:10:49;;;;;;;;;6.67;6.67;;;;;;;;5013566;28;50921;-64
2022/04/06 12:13:15;;;;;;;;;7.00;7.00;;;;;;;;5011781;28;51329;-63
2022/04/06 12:15:41;;;;;;;;;6.00;6.00;;;;;;;;5011852;28;52787;-63
2022/04/06 12:18:07;;;;;;;;;9.00;8.33;;;;;;;;5011785;28;51079;-63
2022/04/06 12:20:32;;;;;;;;;44.50;39.25;;;;;;;;5013475;28;50982;-64
2022/04/06 12:23:04;;;;;;;;;5.67;5.67;;;;;;;;5013622;28;50997;-64
2022/04/06 12:25:31;;;;;;;;;7.00;6.33;;;;;;;;5012035;28;54156;-64
2022/04/06 12:28:17;;;;;;;;;8.00;8.00;;;;;;;;5011797;28;51171;-64
2022/04/06 12:30:52;;;;;;;;;6.00;4.67;;;;;;;;5013425;28;51011;-64
2022/04/06 12:33:35;;;;;;;;;7.67;6.00;;;;;;;;5013331;28;51065;-63
2022/04/06 12:36:23;;;;;;;;;7.00;6.00;;;;;;;;5013136;28;51743;-64
2022/04/06 12:38:58;;;;;;;;;8.33;8.33;;;;;;;;5013385;28;51111;-63
2022/04/06 12:41:25;;;;;;;;;8.50;8.00;;;;;;;;5011846;28;51016;-63
2022/04/06 12:43:50;;;;;;;;;6.67;6.67;;;;;;;;5013269;28;51320;-63
2022/04/06 12:46:34;;;;;;;;;8.00;8.00;;;;;;;;5011656;28;54149;-63
2022/04/06 12:49:18;;;;;;;;;7.00;6.33;;;;;;;;5011797;28;51081;-64
2022/04/06 12:51:44;;;;;;;;;6.00;6.00;;;;;;;;5012979;28;51013;-63
2022/04/06 12:54:09;;;;;;;;;7.33;7.00;;;;;;;;5012872;28;50986;-63
2022/04/06 12:56:34;;;;;;;;;7.00;7.00;;;;;;;;5012656;28;52198;-63
2022/04/06 12:59:09;;;;;;;;;8.33;7.67;;;;;;;;5011320;28;51089;-64
2022/04/06 13:01:45;;;;;;;;;5.00;5.00;;;;;;;;5013358;28;51140;-63
2022/04/06 13:04:10;;;;;;;;;6.00;6.00;;;;;;;;5013404;28;50942;-64
2022/04/06 13:06:35;;;;;;;;;7.00;7.00;;;;;;;;5012134;28;51032;-64
2022/04/06 13:09:02;;;;;;;;;6.67;6.67;;;;;;;;5012583;28;51041;-64
2022/04/06 13:11:27;;;;;;;;;6.00;5.67;;;;;;;;5012591;28;51076;-64
2022/04/06 13:13:52;;;;;;;;;9.33;7.67;;;;;;;;5012467;28;51063;-64
2022/04/06 13:16:19;;;;;;;;;7.00;6.33;;;;;;;;5012368;28;52114;-64
2022/04/06 13:18:45;;;;;;;;;5.33;5.33;;;;;;;;5011252;28;50996;-64
2022/04/06 13:21:11;;;;;;;;;11.67;11.33;;;;;;;;5012348;28;51560;-64
2022/04/06 13:23:36;;;;;;;;;8.00;7.75;;;;;;;;5009286;28;50926;-63
2022/04/06 13:26:02;;;;;;;;;6.00;6.00;;;;;;;;5010573;28;52225;-63
2022/04/06 13:28:28;;;;;;;;;7.00;7.00;;;;;;;;5012288;28;51058;-64
2022/04/06 13:30:54;;;;;;;;;7.67;7.00;;;;;;;;5012352;28;51189;-64
2022/04/06 13:33:21;;;;;;;;;6.00;6.00;;;;;;;;5012792;28;51107;-64
2022/04/06 13:35:49;;;;;;;;;5.00;4.67;;;;;;;;5012433;28;50987;-62
2022/04/06 13:38:14;;;;;;;;;6.33;6.33;;;;;;;;5009325;28;51344;-63
2022/04/06 13:40:39;;;;;;;;;37.00;34.00;;;;;;;;5010806;28;50941;-64
2022/04/06 13:43:04;;;;;;;;;6.00;6.00;;;;;;;;5011936;28;51078;-63
2022/04/06 13:45:30;;;;;;;;;5.33;4.33;;;;;;;;5011669;28;52224;-64
2022/04/06 13:47:56;;;;;;;;;5.00;5.00;;;;;;;;5010799;28;51119;-63
2022/04/06 13:50:22;;;;;;;;;4.67;4.67;;;;;;;;5010776;28;50951;-63
2022/04/06 13:52:47;;;;;;;;;7.00;5.00;;;;;;;;5012202;28;50895;-64
2022/04/06 13:55:17;;;;;;;;;4.00;3.00;;;;;;;;5011510;28;50922;-64
2022/04/06 13:57:42;;;;;;;;;3.00;3.00;;;;;;;;5011662;28;51080;-64
2022/04/06 14:00:09;;;;;;;;;3.67;3.33;;;;;;;;5011837;28;51231;-64
2022/04/06 14:02:34;;;;;;;;;4.00;4.00;;;;;;;;5011969;28;51167;-63
2022/04/06 14:05:01;;;;;;;;;5.00;4.33;;;;;;;;5011794;28;53103;-64
2022/04/06 14:07:27;;;;;;;;;5.00;5.00;;;;;;;;5012039;28;50890;-63
2022/04/06 14:09:52;;;;;;;;;4.00;4.00;;;;;;;;5011506;28;50913;-65
2022/04/06 14:12:17;;;;;;;;;4.00;4.00;;;;;;;;5011426;28;51064;-63
2022/04/06 14:14:42;;;;;;;;;3.67;3.00;;;;;;;;5011401;28;51961;-63
2022/04/06 14:17:11;;;;;;;;;6.00;5.33;;;;;;;;5011373;28;50954;-64
2022/04/06 14:19:36;;;;;;;;;5.67;5.00;;;;;;;;5011500;28;50992;-64
2022/04/06 14:22:01;;;;;;;;;3.67;3.00;;;;;;;;5014102;28;51176;-65
2022/04/06 14:24:26;;;;;;;;;3.67;3.67;;;;;;;;5014967;28;51095;-64
2022/04/06 14:26:51;;;;;;;;;4.67;4.67;;;;;;;;5013497;28;51068;-63
2022/04/06 14:29:17;;;;;;;;;4.33;3.00;;;;;;;;5013629;28;51065;-65
2022/04/06 14:31:42;;;;;;;;;3.00;3.00;;;;;;;;5015161;28;50961;-63
2022/04/06 14:34:09;;;;;;;;;2.33;2.33;;;;;;;;5014732;28;52030;-64
2022/04/06 14:36:35;;;;;;;;;1.33;1.33;;;;;;;;5014859;28;50866;-63
2022/04/06 14:39:00;;;;;;;;;4.00;4.00;;;;;;;;5014678;28;51009;-64
2022/04/06 14:41:26;;;;;;;;;4.33;3.67;;;;;;;;5015195;28;51297;-64
2022/04/06 14:43:51;;;;;;;;;3.33;3.33;;;;;;;;5014427;28;52018;-64
2022/04/06 14:46:16;;;;;;;;;6.00;5.00;;;;;;;;5015042;28;50935;-64
2022/04/06 14:48:41;;;;;;;;;37.25;33.00;;;;;;;;5014735;28;51206;-63